Terminal Aerodrome Forecast
Issued by NWS

Home | Current Version | Previous Version | Text Only | Print | Product List | Glossary On
Versions: 1 2 3 4 5 6 7 8 9 10 11 12 13 14 15 16 17 18 19 20 21 22 23 24
000
FTUS41 KPHI 242300
TAFMIV
TAF
KMIV 242335Z 2500/2524 20008KT 4SM -RA BR OVC004 WS020/21050KT
      TEMPO 2500/2504 3/4SM -RA BR OVC002
     FM250800 27010G20KT P6SM -SHRA OVC010
     FM251400 28010G20KT P6SM SCT035
     FM251900 30009G15KT P6SM SKC
     FM252200 31008KT P6SM SKC=

USA.gov is the U.S. government's official web portal to all federal, state and local government web resources and services.